Pagina principale
METAR-TAF:

METAR-TAF

Aeroporti :

Jos, Nigeria

latitudine: 09-52N, longitudine: 008-54E, altezza: 1295 m

Osservazione

Il bollettino è stato emesso 6 ore e 52 minuti fa, alle 07:00 UTC
Vento 8 kt da est
Temperature 20°C
Umidità 37%
Pressione 1020 hPa
Visibilità 10 km o più
nessuna nube inferiore a 1500 m e nessun cumulonembo

METAR: DNJO 110700Z 09008KT CAVOK 20/05 Q1020

Ora: 14:52 (13:52 UTC)

Previsione

Il bollettino è stato emesso 2 ore e 52 minuti fa, alle 11:00 UTC
Previsione valida dal 11 alle 12 UTC al 11 alle 18 UTC
Vento 4 kt da est
Visibilità 10 km o più
nessuna nube inferiore a 1500 m e nessun cumulonembo
Temporaneamente
dal 11 alle 12 UTC al 11 alle 18 UTC
Vento 14 kt da nord/nord-est

TAF: DNJO 111100Z 1112/1118 08004KT CAVOK TEMPO 1112/1118 02014KT

Osservazioni e previsioni meteorologiche di più di 4000 aeroporti (messaggi METAR e TAF).

Le stazioni disponibili sono rappresentate dai dischi gialli e rossi sulla carta.

Puntare il mouse per vedere il nome della stazione.

Clicca sopra per visualizzare le osservazioni e previsioni meteorologiche.

Per cambiare la mappa : fare clic sui pulsanti verdi con una croce nera per ingrandire, il pulsante verde con un trattino per diminuire, o sulla freccia verde per le mappe adiacenti.


METAR-TAF: